createdAt,value
2018-03-28T00:01:47.595Z,0.00
2018-03-28T00:02:47.626Z,0.00
2018-03-28T00:04:40.594Z,0.00
2018-03-28T00:05:40.560Z,0.00
2018-03-28T00:07:33.459Z,0.00
2018-03-28T00:08:33.486Z,0.00
2018-03-28T00:10:26.482Z,0.00
2018-03-28T00:11:26.942Z,0.00
2018-03-28T00:13:19.343Z,0.00
2018-03-28T00:14:19.861Z,0.00
2018-03-28T00:16:12.233Z,0.00
2018-03-28T00:17:12.239Z,0.00
2018-03-28T00:19:06.205Z,0.00
2018-03-28T00:20:05.167Z,0.00
2018-03-28T00:21:58.102Z,0.00
2018-03-28T00:22:58.120Z,0.00
2018-03-28T00:24:50.987Z,0.00
2018-03-28T00:25:51.044Z,0.00
2018-03-28T00:27:43.932Z,0.00
2018-03-28T00:28:43.951Z,0.00
2018-03-28T00:30:36.859Z,0.00
2018-03-28T00:31:36.851Z,0.00
2018-03-28T00:33:29.796Z,0.00
2018-03-28T00:34:29.758Z,0.00
2018-03-28T00:36:22.665Z,0.00
2018-03-28T00:37:22.711Z,0.00
2018-03-28T00:39:15.611Z,0.00
2018-03-28T00:40:15.614Z,0.00
2018-03-28T00:42:08.497Z,0.00
2018-03-28T00:43:08.528Z,0.00
2018-03-28T00:45:01.475Z,0.00
2018-03-28T00:46:01.420Z,0.00
2018-03-28T00:47:54.337Z,0.00
2018-03-28T00:48:54.364Z,0.00
2018-03-28T00:50:47.312Z,0.00
2018-03-28T00:51:47.297Z,0.00
2018-03-28T00:53:40.258Z,0.00
2018-03-28T00:54:40.199Z,0.00
2018-03-28T00:56:33.117Z,0.00
2018-03-28T00:57:33.139Z,0.00
2018-03-28T00:59:26.071Z,0.00
2018-03-28T01:00:26.046Z,0.00
2018-03-28T01:02:18.933Z,0.00
2018-03-28T01:03:18.969Z,0.00
2018-03-28T01:05:11.920Z,0.00
2018-03-28T01:06:11.883Z,0.00
2018-03-28T01:08:04.761Z,0.00
2018-03-28T01:09:04.792Z,0.00
2018-03-28T01:10:58.239Z,0.00
2018-03-28T01:11:57.691Z,0.00
2018-03-28T01:13:50.694Z,0.00
2018-03-28T01:14:50.655Z,0.00
2018-03-28T01:16:43.543Z,0.00
2018-03-28T01:17:43.586Z,0.00
2018-03-28T01:19:36.538Z,0.00
2018-03-28T01:20:36.459Z,0.00
2018-03-28T01:22:30.448Z,0.00
2018-03-28T01:23:29.567Z,0.00
2018-03-28T01:25:22.555Z,0.00
2018-03-28T01:26:22.489Z,0.00
2018-03-28T01:28:15.386Z,0.00
2018-03-28T01:29:15.418Z,0.00
2018-03-28T01:31:08.336Z,0.00
2018-03-28T01:32:08.327Z,0.00
2018-03-28T01:34:01.244Z,0.00
2018-03-28T01:35:01.265Z,0.00
2018-03-28T01:36:54.211Z,0.00
2018-03-28T01:37:54.197Z,0.00
2018-03-28T01:39:47.078Z,0.00
2018-03-28T01:40:47.083Z,0.00
2018-03-28T01:42:39.973Z,0.00
2018-03-28T01:43:40.014Z,0.00
2018-03-28T01:45:32.904Z,0.00
2018-03-28T01:46:32.931Z,0.00
2018-03-28T01:48:25.821Z,0.00
2018-03-28T01:49:25.862Z,0.00
2018-03-28T01:51:19.290Z,0.00
2018-03-28T01:52:18.775Z,0.00
2018-03-28T01:54:11.756Z,0.00
2018-03-28T01:55:12.218Z,0.00
2018-03-28T01:57:04.644Z,0.00
2018-03-28T01:58:04.601Z,0.00
2018-03-28T01:59:57.528Z,0.00
2018-03-28T02:00:57.534Z,0.00
2018-03-28T02:02:50.408Z,0.00
2018-03-28T02:03:50.427Z,0.00
2018-03-28T02:05:44.843Z,0.00
2018-03-28T02:06:44.843Z,0.00
2018-03-28T02:08:37.749Z,0.00
2018-03-28T02:09:37.781Z,0.00
2018-03-28T02:11:30.701Z,0.00
2018-03-28T02:12:30.695Z,0.00
2018-03-28T02:14:23.640Z,0.00
2018-03-28T02:15:23.610Z,0.00
2018-03-28T02:17:16.488Z,0.00
2018-03-28T02:18:16.484Z,0.00
2018-03-28T02:20:09.403Z,0.00
2018-03-28T02:21:09.403Z,0.00
2018-03-28T02:23:02.305Z,0.00
2018-03-28T02:24:02.323Z,0.00
2018-03-28T02:25:55.244Z,0.00
2018-03-28T02:26:55.252Z,0.00
2018-03-28T02:28:48.143Z,0.00
2018-03-28T02:29:48.163Z,0.00
2018-03-28T02:31:41.083Z,0.00
2018-03-28T02:32:41.083Z,0.00
2018-03-28T02:34:33.983Z,0.00
2018-03-28T02:35:34.041Z,0.00
2018-03-28T02:37:27.092Z,0.00
2018-03-28T02:38:27.095Z,0.00
2018-03-28T02:40:20.011Z,0.00
2018-03-28T02:41:20.022Z,0.00
2018-03-28T02:43:13.913Z,0.00
2018-03-28T02:44:13.926Z,0.00
2018-03-28T02:46:06.848Z,0.00
2018-03-28T02:47:06.847Z,0.00
2018-03-28T02:48:59.758Z,0.00
2018-03-28T02:49:59.766Z,0.00
2018-03-28T02:51:52.689Z,0.00
2018-03-28T02:52:52.686Z,0.00
2018-03-28T02:54:45.589Z,0.00
2018-03-28T02:55:45.613Z,0.00
2018-03-28T02:57:38.537Z,0.00
2018-03-28T02:58:38.527Z,0.00
2018-03-28T03:00:31.448Z,0.00
2018-03-28T03:01:31.447Z,0.00
2018-03-28T03:03:24.348Z,0.00
2018-03-28T03:04:24.367Z,0.00
2018-03-28T03:06:17.292Z,0.00
2018-03-28T03:07:17.289Z,0.00
2018-03-28T03:09:10.191Z,0.00
2018-03-28T03:10:10.207Z,0.00
2018-03-28T03:12:03.128Z,0.00
2018-03-28T03:13:03.125Z,0.00
2018-03-28T03:14:56.033Z,0.00
2018-03-28T03:15:56.064Z,0.00
2018-03-28T03:17:48.974Z,0.00
2018-03-28T03:18:48.971Z,0.00
2018-03-28T03:20:41.894Z,0.00
2018-03-28T03:21:41.893Z,0.00
2018-03-28T03:23:34.799Z,0.00
2018-03-28T03:24:34.812Z,0.00
2018-03-28T03:26:27.761Z,0.00
2018-03-28T03:27:27.733Z,0.00
2018-03-28T03:29:20.636Z,0.00
2018-03-28T03:30:20.654Z,0.00
2018-03-28T03:32:13.571Z,0.00
2018-03-28T03:33:13.571Z,0.00
2018-03-28T03:35:06.475Z,0.00
2018-03-28T03:36:06.494Z,0.00
2018-03-28T03:37:59.413Z,0.00
2018-03-28T03:38:59.466Z,0.00
2018-03-28T03:40:52.329Z,0.00
2018-03-28T03:41:52.330Z,0.00
2018-03-28T03:43:45.229Z,0.00
2018-03-28T03:44:45.248Z,0.00
2018-03-28T03:46:38.223Z,0.00
2018-03-28T03:47:38.173Z,0.00
2018-03-28T03:49:31.074Z,0.00
2018-03-28T03:50:31.088Z,0.00
2018-03-28T03:52:24.010Z,0.00
2018-03-28T03:53:24.011Z,0.00
2018-03-28T03:55:16.910Z,0.00
2018-03-28T03:56:16.927Z,0.00
2018-03-28T03:58:09.851Z,0.00
2018-03-28T03:59:09.846Z,0.00
2018-03-28T04:01:02.769Z,0.00
2018-03-28T04:02:02.768Z,0.00
2018-03-28T04:03:55.674Z,0.00
2018-03-28T04:04:55.687Z,0.00
2018-03-28T04:06:48.610Z,0.00
2018-03-28T04:07:48.609Z,0.00
2018-03-28T04:09:41.509Z,0.00
2018-03-28T04:10:41.527Z,0.00
2018-03-28T04:12:34.445Z,0.00
2018-03-28T04:13:34.444Z,0.00
2018-03-28T04:15:27.351Z,0.00
2018-03-28T04:16:27.370Z,0.00
2018-03-28T04:18:20.294Z,0.00
2018-03-28T04:19:20.292Z,0.00
2018-03-28T04:21:13.216Z,0.00
2018-03-28T04:22:13.214Z,0.00
2018-03-28T04:24:06.116Z,0.00
2018-03-28T04:25:06.134Z,0.00
2018-03-28T04:26:59.058Z,0.00
2018-03-28T04:27:59.057Z,0.00
2018-03-28T04:29:51.968Z,0.00
2018-03-28T04:30:51.984Z,0.00
2018-03-28T04:32:44.904Z,0.00
2018-03-28T04:33:44.906Z,0.00
2018-03-28T04:35:37.804Z,0.00
2018-03-28T04:36:37.837Z,0.00
2018-03-28T04:38:30.742Z,0.00
2018-03-28T04:39:30.738Z,0.00
2018-03-28T04:41:23.659Z,0.00
2018-03-28T04:42:23.657Z,0.00
2018-03-28T04:44:16.561Z,0.00
2018-03-28T04:45:16.580Z,0.00
2018-03-28T04:47:09.496Z,0.00
2018-03-28T04:48:09.494Z,0.00
2018-03-28T04:50:02.393Z,4.00
2018-03-28T04:51:02.412Z,0.00
2018-03-28T04:52:55.330Z,4.00
2018-03-28T04:53:55.328Z,4.00
2018-03-28T04:55:48.310Z,4.00
2018-03-28T04:56:48.299Z,4.00
2018-03-28T04:58:41.217Z,8.00
2018-03-28T04:59:41.231Z,8.00
2018-03-28T05:01:34.162Z,12.00
2018-03-28T05:02:34.137Z,16.00
2018-03-28T05:04:27.034Z,20.00
2018-03-28T05:05:27.053Z,20.00
2018-03-28T05:07:19.973Z,24.00
2018-03-28T05:08:19.971Z,28.00
2018-03-28T05:10:12.878Z,32.00
2018-03-28T05:11:12.888Z,36.00
2018-03-28T05:13:05.817Z,56.00
2018-03-28T05:14:05.811Z,60.00
2018-03-28T05:15:58.710Z,64.00
2018-03-28T05:16:58.729Z,64.00
2018-03-28T05:18:51.649Z,64.00
2018-03-28T05:19:51.648Z,60.00
2018-03-28T05:21:44.578Z,76.00
2018-03-28T05:22:44.579Z,84.00
2018-03-28T05:24:37.474Z,84.00
2018-03-28T05:25:37.494Z,84.00
2018-03-28T05:27:30.427Z,96.00
2018-03-28T05:28:30.459Z,104.00
2018-03-28T05:30:23.313Z,112.00
2018-03-28T05:31:23.332Z,108.00
2018-03-28T05:33:16.444Z,112.00
2018-03-28T05:34:16.446Z,120.00
2018-03-28T05:36:09.348Z,148.00
2018-03-28T05:37:09.361Z,168.00
2018-03-28T05:39:02.295Z,180.00
2018-03-28T05:40:02.286Z,172.00
2018-03-28T05:41:55.205Z,184.00
2018-03-28T05:42:55.202Z,200.00
2018-03-28T05:44:48.108Z,224.00
2018-03-28T05:45:48.124Z,236.00
2018-03-28T05:47:41.047Z,264.00
2018-03-28T05:48:41.043Z,276.00
2018-03-28T05:50:33.951Z,300.00
2018-03-28T05:51:34.040Z,336.00
2018-03-28T05:53:26.886Z,404.00
2018-03-28T05:54:26.888Z,432.00
2018-03-28T05:56:19.786Z,492.00
2018-03-28T05:57:19.804Z,508.00
2018-03-28T05:59:12.726Z,488.00
2018-03-28T06:00:12.724Z,500.00
2018-03-28T06:02:05.641Z,600.00
2018-03-28T06:03:05.642Z,684.00
2018-03-28T06:04:58.548Z,712.00
2018-03-28T06:05:58.563Z,760.00
2018-03-28T06:07:51.481Z,692.00
2018-03-28T06:08:51.479Z,628.00
2018-03-28T06:10:44.381Z,684.00
2018-03-28T06:11:44.398Z,676.00
2018-03-28T06:13:37.324Z,616.00
2018-03-28T06:14:37.321Z,676.00
2018-03-28T06:16:30.222Z,760.00
2018-03-28T06:17:30.240Z,788.00
2018-03-28T06:19:23.161Z,952.00
2018-03-28T06:20:23.160Z,1068.00
2018-03-28T06:22:16.086Z,1108.00
2018-03-28T06:23:16.087Z,1060.00
2018-03-28T06:25:08.988Z,984.00
2018-03-28T06:26:09.006Z,1000.00
2018-03-28T06:28:01.927Z,884.00
2018-03-28T06:29:01.928Z,760.00
2018-03-28T06:30:54.830Z,668.00
2018-03-28T06:31:54.851Z,732.00
2018-03-28T06:33:47.769Z,844.00
2018-03-28T06:34:47.770Z,908.00
2018-03-28T06:36:40.674Z,1000.00
2018-03-28T06:37:40.687Z,1040.00
2018-03-28T06:39:33.605Z,1152.00
2018-03-28T06:40:33.604Z,1080.00
2018-03-28T06:42:26.524Z,920.00
2018-03-28T06:43:26.523Z,784.00
2018-03-28T06:45:19.427Z,700.00
2018-03-28T06:46:19.446Z,760.00
2018-03-28T06:48:12.363Z,856.00
2018-03-28T06:49:12.364Z,904.00
2018-03-28T06:51:05.473Z,1008.00
2018-03-28T06:52:05.490Z,964.00
2018-03-28T06:53:58.577Z,1056.00
2018-03-28T06:54:58.586Z,1004.00
2018-03-28T06:56:51.482Z,928.00
2018-03-28T06:57:51.500Z,972.00
2018-03-28T06:59:44.450Z,1024.00
2018-03-28T07:00:44.417Z,1108.00
2018-03-28T07:02:37.342Z,1364.00
2018-03-28T07:03:37.342Z,1520.00
2018-03-28T07:05:30.241Z,2088.00
2018-03-28T07:06:30.260Z,2628.00
2018-03-28T07:08:23.186Z,2976.00
2018-03-28T07:09:23.182Z,2796.00
2018-03-28T07:11:16.082Z,2288.00
2018-03-28T07:12:16.099Z,2248.00
2018-03-28T07:14:09.021Z,1664.00
2018-03-28T07:15:09.019Z,1452.00
2018-03-28T07:17:01.931Z,1300.00
2018-03-28T07:18:01.987Z,1344.00
2018-03-28T07:19:54.860Z,1516.00
2018-03-28T07:20:54.860Z,1692.00
2018-03-28T07:22:47.779Z,1792.00
2018-03-28T07:23:47.780Z,1888.00
2018-03-28T07:25:40.684Z,2020.00
2018-03-28T07:26:40.702Z,2228.00
2018-03-28T07:28:33.622Z,1908.00
2018-03-28T07:29:33.621Z,1640.00
2018-03-28T07:31:26.521Z,1528.00
2018-03-28T07:32:26.541Z,1460.00
2018-03-28T07:34:19.465Z,1316.00
2018-03-28T07:35:19.457Z,1312.00
2018-03-28T07:37:12.362Z,1516.00
2018-03-28T07:38:12.380Z,1448.00
2018-03-28T07:40:05.300Z,1732.00
2018-03-28T07:41:05.298Z,1508.00
2018-03-28T07:42:58.221Z,1208.00
2018-03-28T07:43:58.220Z,1260.00
2018-03-28T07:45:51.123Z,1508.00
2018-03-28T07:46:51.140Z,1636.00
2018-03-28T07:48:44.059Z,1872.00
2018-03-28T07:49:44.058Z,1940.00
2018-03-28T07:51:36.969Z,1956.00
2018-03-28T07:52:36.980Z,1944.00
2018-03-28T07:54:29.900Z,1864.00
2018-03-28T07:55:29.899Z,1880.00
2018-03-28T07:57:22.803Z,1816.00
2018-03-28T07:58:22.819Z,1612.00
2018-03-28T08:00:15.749Z,1372.00
2018-03-28T08:01:15.740Z,1492.00
2018-03-28T08:03:08.664Z,1544.00
2018-03-28T08:04:08.667Z,1656.00
2018-03-28T08:06:01.565Z,2076.00
2018-03-28T08:07:01.590Z,2180.00
2018-03-28T08:08:54.510Z,2284.00
2018-03-28T08:09:54.502Z,2272.00
2018-03-28T08:11:47.407Z,3016.00
2018-03-28T08:12:47.426Z,3476.00
2018-03-28T08:14:40.346Z,3648.00
2018-03-28T08:15:40.347Z,3700.00
2018-03-28T08:17:33.246Z,3484.00
2018-03-28T08:18:33.264Z,4016.00
2018-03-28T08:20:26.187Z,4140.00
2018-03-28T08:21:26.186Z,3768.00
2018-03-28T08:23:19.106Z,4112.00
2018-03-28T08:24:19.106Z,4636.00
2018-03-28T08:26:12.009Z,3784.00
2018-03-28T08:27:12.028Z,3552.00
2018-03-28T08:29:04.947Z,4312.00
2018-03-28T08:30:04.947Z,3968.00
2018-03-28T08:31:57.851Z,3652.00
2018-03-28T08:32:57.869Z,3576.00
2018-03-28T08:34:50.789Z,4352.00
2018-03-28T08:35:50.792Z,3892.00
2018-03-28T08:37:43.693Z,3192.00
2018-03-28T08:38:43.714Z,3856.00
2018-03-28T08:40:36.635Z,3464.00
2018-03-28T08:41:36.636Z,3336.00
2018-03-28T08:43:29.578Z,2764.00
2018-03-28T08:44:29.555Z,2668.00
2018-03-28T08:46:22.469Z,2552.00
2018-03-28T08:47:22.495Z,2848.00
2018-03-28T08:49:15.420Z,5600.00
2018-03-28T08:50:15.417Z,6004.00
2018-03-28T08:52:08.326Z,5164.00
2018-03-28T08:53:08.335Z,4804.00
2018-03-28T08:55:01.258Z,4392.00
2018-03-28T08:56:01.267Z,4104.00
2018-03-28T08:57:54.162Z,4232.00
2018-03-28T08:58:54.183Z,5776.00
2018-03-28T09:00:47.103Z,5632.00
2018-03-28T09:01:47.110Z,4496.00
2018-03-28T09:03:40.028Z,4732.00
2018-03-28T09:04:40.026Z,6692.00
2018-03-28T09:06:32.928Z,7060.00
2018-03-28T09:07:32.948Z,5608.00
2018-03-28T09:09:25.879Z,6356.00
2018-03-28T09:10:25.871Z,7912.00
2018-03-28T09:12:18.777Z,8596.00
2018-03-28T09:13:18.796Z,10124.00
2018-03-28T09:15:11.720Z,10280.00
2018-03-28T09:16:11.723Z,9900.00
2018-03-28T09:18:04.632Z,7204.00
2018-03-28T09:19:04.659Z,7684.00
2018-03-28T09:20:57.580Z,10588.00
2018-03-28T09:21:57.578Z,11136.00
2018-03-28T09:23:50.502Z,12112.00
2018-03-28T09:24:50.502Z,11732.00
2018-03-28T09:26:43.407Z,11816.00
2018-03-28T09:27:43.427Z,11948.00
2018-03-28T09:29:36.361Z,12560.00
2018-03-28T09:30:36.352Z,12348.00
2018-03-28T09:32:29.280Z,9344.00
2018-03-28T09:33:29.299Z,10080.00
2018-03-28T09:35:22.231Z,12580.00
2018-03-28T09:36:22.228Z,12868.00
2018-03-28T09:38:15.139Z,11004.00
2018-03-28T09:39:15.157Z,9904.00
2018-03-28T09:41:08.098Z,8600.00
2018-03-28T09:42:08.100Z,8080.00
2018-03-28T09:44:01.085Z,10316.00
2018-03-28T09:45:01.031Z,10968.00
2018-03-28T09:46:53.937Z,11008.00
2018-03-28T09:47:53.959Z,10012.00
2018-03-28T09:49:46.886Z,10484.00
2018-03-28T09:50:46.886Z,10868.00
2018-03-28T09:52:39.806Z,10888.00
2018-03-28T09:53:39.813Z,10972.00
2018-03-28T09:55:32.744Z,11164.00
2018-03-28T09:56:32.750Z,11548.00
2018-03-28T09:58:25.661Z,11156.00
2018-03-28T09:59:25.681Z,10412.00
2018-03-28T10:01:18.678Z,9716.00
2018-03-28T10:02:18.612Z,8984.00
2018-03-28T10:04:11.539Z,7560.00
2018-03-28T10:05:11.540Z,7096.00
2018-03-28T10:07:04.450Z,6968.00
2018-03-28T10:08:04.472Z,7544.00
2018-03-28T10:09:57.410Z,10888.00
2018-03-28T10:10:57.400Z,11928.00
2018-03-28T10:12:50.305Z,11944.00
2018-03-28T10:13:50.327Z,11908.00
2018-03-28T10:15:43.260Z,12768.00
2018-03-28T10:16:43.258Z,13440.00
2018-03-28T10:18:36.169Z,14088.00
2018-03-28T10:19:36.191Z,14104.00
2018-03-28T10:21:29.123Z,13964.00
2018-03-28T10:22:29.128Z,13936.00
2018-03-28T10:24:22.058Z,13940.00
2018-03-28T10:25:22.062Z,13636.00
2018-03-28T10:27:14.972Z,12884.00
2018-03-28T10:28:14.998Z,12860.00
2018-03-28T10:30:07.924Z,12760.00
2018-03-28T10:31:07.927Z,12748.00
2018-03-28T10:33:00.841Z,12220.00
2018-03-28T10:34:00.870Z,11248.00
2018-03-28T10:35:53.797Z,11120.00
2018-03-28T10:36:53.796Z,11440.00
2018-03-28T10:38:46.702Z,10936.00
2018-03-28T10:39:46.728Z,11436.00
2018-03-28T10:41:39.659Z,12448.00
2018-03-28T10:42:39.658Z,12324.00
2018-03-28T10:44:32.589Z,11072.00
2018-03-28T10:45:32.591Z,11672.00
2018-03-28T10:47:25.551Z,12632.00
2018-03-28T10:48:25.526Z,12892.00
2018-03-28T10:50:18.455Z,12340.00
2018-03-28T10:51:18.458Z,12676.00
2018-03-28T10:53:11.368Z,12952.00
2018-03-28T10:54:11.391Z,12728.00
2018-03-28T10:56:04.318Z,11312.00
2018-03-28T10:57:04.323Z,9664.00
2018-03-28T10:58:57.238Z,9860.00
2018-03-28T10:59:57.261Z,10524.00
2018-03-28T11:01:50.193Z,11084.00
2018-03-28T11:02:50.194Z,11148.00
2018-03-28T11:04:43.132Z,10476.00
2018-03-28T11:05:43.144Z,9536.00
2018-03-28T11:07:36.047Z,9744.00
2018-03-28T11:08:36.071Z,9640.00
2018-03-28T11:10:29.008Z,9476.00
2018-03-28T11:11:29.014Z,9384.00
2018-03-28T11:13:21.929Z,9536.00
2018-03-28T11:14:21.944Z,9864.00
2018-03-28T11:16:15.041Z,10708.00
2018-03-28T11:17:15.045Z,11160.00
2018-03-28T11:19:07.960Z,11280.00
2018-03-28T11:20:07.988Z,11460.00
2018-03-28T11:22:00.916Z,11868.00
2018-03-28T11:23:00.914Z,11704.00
2018-03-28T11:24:54.010Z,11040.00
2018-03-28T11:25:54.059Z,10428.00
2018-03-28T11:27:46.924Z,10580.00
2018-03-28T11:28:46.946Z,10864.00
2018-03-28T11:30:39.880Z,11060.00
2018-03-28T11:31:39.880Z,10488.00
2018-03-28T11:33:32.789Z,9796.00
2018-03-28T11:34:32.810Z,9916.00
2018-03-28T11:36:25.761Z,10600.00
2018-03-28T11:37:25.751Z,9956.00
2018-03-28T11:39:18.657Z,10228.00
2018-03-28T11:40:18.681Z,10648.00
2018-03-28T11:42:11.607Z,10608.00
2018-03-28T11:43:11.611Z,10760.00
2018-03-28T11:45:04.537Z,10884.00
2018-03-28T11:46:04.542Z,10884.00
2018-03-28T11:47:57.452Z,10944.00
2018-03-28T11:48:57.474Z,11000.00
2018-03-28T11:50:50.406Z,11020.00
2018-03-28T11:51:50.412Z,11128.00
2018-03-28T11:53:43.322Z,11004.00
2018-03-28T11:54:43.344Z,11164.00
2018-03-28T11:56:36.272Z,11360.00
2018-03-28T11:57:36.275Z,11424.00
2018-03-28T11:59:29.189Z,11620.00
2018-03-28T12:00:29.210Z,11808.00
2018-03-28T12:02:22.142Z,12084.00
2018-03-28T12:03:22.144Z,12296.00
2018-03-28T12:05:15.082Z,12804.00
2018-03-28T12:06:15.080Z,12992.00
2018-03-28T12:08:07.991Z,13128.00
2018-03-28T12:09:08.087Z,12888.00
2018-03-28T12:11:00.951Z,12532.00
2018-03-28T12:12:00.958Z,12460.00
2018-03-28T12:13:53.863Z,12848.00
2018-03-28T12:14:53.888Z,13032.00
2018-03-28T12:16:46.823Z,11876.00
2018-03-28T12:17:46.822Z,10420.00
2018-03-28T12:19:39.731Z,9484.00
2018-03-28T12:20:39.757Z,9548.00
2018-03-28T12:22:32.698Z,9668.00
2018-03-28T12:23:32.704Z,9164.00
2018-03-28T12:25:25.630Z,8712.00
2018-03-28T12:26:25.633Z,8160.00
2018-03-28T12:28:18.870Z,7340.00
2018-03-28T12:29:18.580Z,6812.00
2018-03-28T12:31:11.508Z,6412.00
2018-03-28T12:32:11.513Z,6512.00
2018-03-28T12:34:04.428Z,6244.00
2018-03-28T12:35:04.450Z,6064.00
2018-03-28T12:36:57.381Z,5416.00
2018-03-28T12:37:57.381Z,5364.00
2018-03-28T12:39:50.299Z,5340.00
2018-03-28T12:40:50.320Z,5112.00
2018-03-28T12:42:43.252Z,4732.00
2018-03-28T12:43:43.252Z,4844.00
2018-03-28T12:45:36.193Z,5048.00
2018-03-28T12:46:36.185Z,5068.00
2018-03-28T12:48:29.093Z,4840.00
2018-03-28T12:49:29.113Z,5048.00
2018-03-28T12:51:22.044Z,5756.00
2018-03-28T12:52:22.144Z,5884.00
2018-03-28T12:54:14.957Z,6996.00
2018-03-28T12:55:14.985Z,7684.00
2018-03-28T12:57:07.912Z,7520.00
2018-03-28T12:58:07.950Z,7060.00
2018-03-28T13:00:00.888Z,6516.00
2018-03-28T13:01:00.940Z,6300.00
2018-03-28T13:02:53.775Z,5916.00
2018-03-28T13:03:53.779Z,5712.00
2018-03-28T13:05:46.711Z,5408.00
2018-03-28T13:06:46.714Z,5236.00
2018-03-28T13:08:39.624Z,5088.00
2018-03-28T13:09:39.644Z,4904.00
2018-03-28T13:11:32.571Z,4840.00
2018-03-28T13:12:32.575Z,4748.00
2018-03-28T13:14:25.501Z,5280.00
2018-03-28T13:15:25.510Z,5336.00
2018-03-28T13:17:18.516Z,4516.00
2018-03-28T13:18:18.477Z,4300.00
2018-03-28T13:20:11.385Z,4012.00
2018-03-28T13:21:11.408Z,3640.00
2018-03-28T13:23:04.337Z,2520.00
2018-03-28T13:24:04.340Z,2000.00
2018-03-28T13:25:57.284Z,2416.00
2018-03-28T13:26:57.280Z,2700.00
2018-03-28T13:28:50.221Z,3432.00
2018-03-28T13:29:50.209Z,3872.00
2018-03-28T13:31:43.136Z,4612.00
2018-03-28T13:32:43.231Z,4808.00
2018-03-28T13:34:36.068Z,4580.00
2018-03-28T13:35:36.091Z,4444.00
2018-03-28T13:37:29.021Z,4228.00
2018-03-28T13:38:29.021Z,4152.00
2018-03-28T13:40:21.929Z,3880.00
2018-03-28T13:41:21.950Z,3472.00
2018-03-28T13:43:14.878Z,2852.00
2018-03-28T13:44:14.879Z,2716.00
2018-03-28T13:46:07.806Z,2680.00
2018-03-28T13:47:07.813Z,2632.00
2018-03-28T13:49:00.712Z,2844.00
2018-03-28T13:50:00.733Z,2860.00
2018-03-28T13:51:54.352Z,2820.00
2018-03-28T13:52:54.366Z,2892.00
2018-03-28T13:54:47.247Z,2616.00
2018-03-28T13:55:47.273Z,2724.00
2018-03-28T13:57:40.197Z,3500.00
2018-03-28T13:58:40.194Z,3812.00
2018-03-28T14:00:33.104Z,4200.00
2018-03-28T14:01:33.124Z,4224.00
2018-03-28T14:03:26.050Z,4028.00
2018-03-28T14:04:26.050Z,3812.00
2018-03-28T14:06:18.973Z,3660.00
2018-03-28T14:07:18.974Z,3640.00
2018-03-28T14:09:11.882Z,3612.00
2018-03-28T14:10:11.901Z,3520.00
2018-03-28T14:12:04.831Z,3508.00
2018-03-28T14:13:04.828Z,3476.00
2018-03-28T14:14:57.733Z,3288.00
2018-03-28T14:15:57.752Z,3236.00
2018-03-28T14:17:50.682Z,3136.00
2018-03-28T14:18:50.684Z,3120.00
2018-03-28T14:20:43.591Z,3008.00
2018-03-28T14:21:43.663Z,2912.00
2018-03-28T14:23:36.534Z,2976.00
2018-03-28T14:24:36.533Z,2780.00
2018-03-28T14:26:29.456Z,2648.00
2018-03-28T14:27:29.456Z,2696.00
2018-03-28T14:29:23.214Z,2980.00
2018-03-28T14:30:23.233Z,2964.00
2018-03-28T14:32:16.152Z,3016.00
2018-03-28T14:33:16.194Z,3108.00
2018-03-28T14:35:09.056Z,3248.00
2018-03-28T14:36:09.078Z,3352.00
2018-03-28T14:38:02.007Z,3196.00
2018-03-28T14:39:02.005Z,3148.00
2018-03-28T14:40:54.911Z,2840.00
2018-03-28T14:41:54.931Z,2680.00
2018-03-28T14:43:48.360Z,2600.00
2018-03-28T14:44:48.360Z,2568.00
2018-03-28T14:46:41.283Z,2532.00
2018-03-28T14:47:41.283Z,2540.00
2018-03-28T14:49:34.191Z,2552.00
2018-03-28T14:50:34.213Z,2552.00
2018-03-28T14:52:27.141Z,2388.00
2018-03-28T14:53:27.137Z,2324.00
2018-03-28T14:55:20.042Z,2384.00
2018-03-28T14:56:20.065Z,2528.00
2018-03-28T14:58:12.985Z,2656.00
2018-03-28T14:59:13.024Z,2640.00
2018-03-28T15:01:05.895Z,2920.00
2018-03-28T15:02:05.912Z,3164.00
2018-03-28T15:03:58.877Z,3208.00
2018-03-28T15:04:58.841Z,3080.00
2018-03-28T15:06:51.899Z,2756.00
2018-03-28T15:07:51.767Z,2576.00
2018-03-28T15:09:44.676Z,2664.00
2018-03-28T15:10:44.689Z,2900.00
2018-03-28T15:12:37.607Z,2828.00
2018-03-28T15:13:37.607Z,2860.00
2018-03-28T15:15:30.511Z,2608.00
2018-03-28T15:16:30.530Z,1836.00
2018-03-28T15:18:23.469Z,1560.00
2018-03-28T15:19:23.456Z,2144.00
2018-03-28T15:21:16.358Z,2360.00
2018-03-28T15:22:16.377Z,1828.00
2018-03-28T15:24:09.301Z,1800.00
2018-03-28T15:25:09.303Z,1988.00
2018-03-28T15:27:02.224Z,2548.00
2018-03-28T15:28:02.224Z,2612.00
2018-03-28T15:29:55.129Z,2220.00
2018-03-28T15:30:55.146Z,2664.00
2018-03-28T15:32:48.068Z,4192.00
2018-03-28T15:33:48.068Z,4416.00
2018-03-28T15:35:40.976Z,4564.00
2018-03-28T15:36:41.004Z,4292.00
2018-03-28T15:38:33.928Z,3832.00
2018-03-28T15:39:33.926Z,3796.00
2018-03-28T15:41:26.831Z,3744.00
2018-03-28T15:42:26.850Z,3536.00
2018-03-28T15:44:19.776Z,3136.00
2018-03-28T15:45:19.777Z,2912.00
2018-03-28T15:47:12.702Z,2792.00
2018-03-28T15:48:12.701Z,2692.00
2018-03-28T15:50:05.613Z,2424.00
2018-03-28T15:51:05.634Z,2272.00
2018-03-28T15:52:58.561Z,2056.00
2018-03-28T15:53:58.562Z,1856.00
2018-03-28T15:55:51.495Z,1420.00
2018-03-28T15:56:51.514Z,1396.00
2018-03-28T15:58:44.434Z,1120.00
2018-03-28T15:59:44.436Z,1032.00
2018-03-28T16:01:37.338Z,796.00
2018-03-28T16:02:37.361Z,704.00
2018-03-28T16:04:30.287Z,804.00
2018-03-28T16:05:30.285Z,884.00
2018-03-28T16:07:23.212Z,660.00
2018-03-28T16:08:23.213Z,652.00
2018-03-28T16:10:16.116Z,652.00
2018-03-28T16:11:16.134Z,640.00
2018-03-28T16:13:09.062Z,768.00
2018-03-28T16:14:09.115Z,708.00
2018-03-28T16:16:01.979Z,592.00
2018-03-28T16:17:02.010Z,676.00
2018-03-28T16:18:54.903Z,756.00
2018-03-28T16:19:54.905Z,708.00
2018-03-28T16:21:47.808Z,832.00
2018-03-28T16:22:47.827Z,812.00
2018-03-28T16:24:40.747Z,768.00
2018-03-28T16:25:40.748Z,784.00
2018-03-28T16:27:33.669Z,904.00
2018-03-28T16:28:33.670Z,960.00
2018-03-28T16:30:26.590Z,1020.00
2018-03-28T16:31:26.594Z,1044.00
2018-03-28T16:33:20.017Z,1200.00
2018-03-28T16:34:20.015Z,1328.00
2018-03-28T16:36:12.956Z,1544.00
2018-03-28T16:37:12.947Z,1524.00
2018-03-28T16:39:05.913Z,1216.00
2018-03-28T16:40:05.886Z,1112.00
2018-03-28T16:41:58.775Z,1064.00
2018-03-28T16:42:59.851Z,1076.00
2018-03-28T16:44:51.736Z,1200.00
2018-03-28T16:45:51.714Z,1296.00
2018-03-28T16:47:44.619Z,1564.00
2018-03-28T16:48:44.649Z,1872.00
2018-03-28T16:50:37.564Z,1944.00
2018-03-28T16:51:37.562Z,1868.00
2018-03-28T16:53:30.468Z,1784.00
2018-03-28T16:54:30.493Z,1720.00
2018-03-28T16:56:23.409Z,1260.00
2018-03-28T16:57:23.413Z,948.00
2018-03-28T16:59:16.331Z,620.00
2018-03-28T17:00:16.330Z,616.00
2018-03-28T17:02:09.234Z,892.00
2018-03-28T17:03:09.254Z,884.00
2018-03-28T17:05:02.217Z,744.00
2018-03-28T17:06:02.192Z,776.00
2018-03-28T17:07:55.143Z,972.00
2018-03-28T17:08:55.113Z,1020.00
2018-03-28T17:10:48.038Z,1020.00
2018-03-28T17:11:48.034Z,1108.00
2018-03-28T17:13:40.935Z,1260.00
2018-03-28T17:14:40.954Z,1300.00
2018-03-28T17:16:33.876Z,1240.00
2018-03-28T17:17:33.876Z,1108.00
2018-03-28T17:19:26.798Z,912.00
2018-03-28T17:20:26.797Z,828.00
2018-03-28T17:22:19.722Z,692.00
2018-03-28T17:23:19.719Z,580.00
2018-03-28T17:25:12.622Z,624.00
2018-03-28T17:26:12.635Z,804.00
2018-03-28T17:28:05.573Z,1052.00
2018-03-28T17:29:05.562Z,1048.00
2018-03-28T17:30:58.503Z,852.00
2018-03-28T17:31:58.631Z,748.00
2018-03-28T17:33:51.384Z,576.00
2018-03-28T17:34:51.404Z,440.00
2018-03-28T17:36:44.354Z,268.00
2018-03-28T17:37:44.357Z,204.00
2018-03-28T17:39:37.259Z,160.00
2018-03-28T17:40:37.278Z,172.00
2018-03-28T17:42:30.202Z,204.00
2018-03-28T17:43:30.202Z,188.00
2018-03-28T17:45:23.117Z,144.00
2018-03-28T17:46:23.120Z,124.00
2018-03-28T17:48:16.042Z,92.00
2018-03-28T17:49:16.043Z,92.00
2018-03-28T17:51:08.966Z,84.00
2018-03-28T17:52:09.006Z,76.00
2018-03-28T17:54:01.908Z,60.00
2018-03-28T17:55:01.910Z,52.00
2018-03-28T17:56:54.871Z,44.00